sensor_id;sensor_type;location;lat;lon;timestamp;P1;durP1;ratioP1;P2;durP2;ratioP2
43835;SDS011;39345;43.964;25.340;2024-01-06T00:01:50;12.70;;;8.30;;
43835;SDS011;39345;43.964;25.340;2024-01-06T00:04:18;14.75;;;9.68;;
43835;SDS011;39345;43.964;25.340;2024-01-06T00:06:45;16.35;;;9.57;;
43835;SDS011;39345;43.964;25.340;2024-01-06T00:09:13;15.40;;;9.13;;
43835;SDS011;39345;43.964;25.340;2024-01-06T00:11:40;13.30;;;8.50;;
43835;SDS011;39345;43.964;25.340;2024-01-06T00:14:08;14.52;;;9.52;;
43835;SDS011;39345;43.964;25.340;2024-01-06T00:16:36;19.65;;;9.95;;
43835;SDS011;39345;43.964;25.340;2024-01-06T00:19:03;14.85;;;9.98;;
43835;SDS011;39345;43.964;25.340;2024-01-06T00:21:31;12.80;;;9.23;;
43835;SDS011;39345;43.964;25.340;2024-01-06T00:23:59;16.63;;;9.77;;
43835;SDS011;39345;43.964;25.340;2024-01-06T00:26:26;15.23;;;9.93;;
43835;SDS011;39345;43.964;25.340;2024-01-06T00:28:54;15.10;;;10.02;;
43835;SDS011;39345;43.964;25.340;2024-01-06T00:31:22;15.30;;;10.10;;
43835;SDS011;39345;43.964;25.340;2024-01-06T00:33:49;16.10;;;10.20;;
43835;SDS011;39345;43.964;25.340;2024-01-06T00:36:17;17.55;;;10.55;;
43835;SDS011;39345;43.964;25.340;2024-01-06T00:38:44;16.38;;;10.52;;
43835;SDS011;39345;43.964;25.340;2024-01-06T00:41:13;15.68;;;10.98;;
43835;SDS011;39345;43.964;25.340;2024-01-06T00:43:41;16.52;;;10.02;;
43835;SDS011;39345;43.964;25.340;2024-01-06T00:46:09;18.70;;;10.57;;
43835;SDS011;39345;43.964;25.340;2024-01-06T00:48:37;19.08;;;10.57;;
43835;SDS011;39345;43.964;25.340;2024-01-06T00:51:04;16.75;;;10.45;;
43835;SDS011;39345;43.964;25.340;2024-01-06T00:53:32;17.23;;;10.70;;
43835;SDS011;39345;43.964;25.340;2024-01-06T00:55:59;17.95;;;10.60;;
43835;SDS011;39345;43.964;25.340;2024-01-06T00:58:27;14.70;;;10.10;;
43835;SDS011;39345;43.964;25.340;2024-01-06T01:00:55;16.98;;;9.98;;
43835;SDS011;39345;43.964;25.340;2024-01-06T01:03:22;16.45;;;9.70;;
43835;SDS011;39345;43.964;25.340;2024-01-06T01:05:50;15.35;;;9.63;;
43835;SDS011;39345;43.964;25.340;2024-01-06T01:08:17;14.55;;;9.70;;
43835;SDS011;39345;43.964;25.340;2024-01-06T01:10:45;15.95;;;9.95;;
43835;SDS011;39345;43.964;25.340;2024-01-06T01:13:13;15.90;;;9.60;;
43835;SDS011;39345;43.964;25.340;2024-01-06T01:15:40;14.98;;;9.25;;
43835;SDS011;39345;43.964;25.340;2024-01-06T01:18:08;14.73;;;9.60;;
43835;SDS011;39345;43.964;25.340;2024-01-06T01:20:35;13.98;;;9.70;;
43835;SDS011;39345;43.964;25.340;2024-01-06T01:23:03;16.98;;;11.23;;
43835;SDS011;39345;43.964;25.340;2024-01-06T01:25:30;18.80;;;10.75;;
43835;SDS011;39345;43.964;25.340;2024-01-06T01:27:58;20.05;;;10.65;;
43835;SDS011;39345;43.964;25.340;2024-01-06T01:30:25;18.63;;;10.65;;
43835;SDS011;39345;43.964;25.340;2024-01-06T01:32:53;17.77;;;11.25;;
43835;SDS011;39345;43.964;25.340;2024-01-06T01:35:21;18.90;;;11.25;;
43835;SDS011;39345;43.964;25.340;2024-01-06T01:37:49;16.08;;;10.98;;
43835;SDS011;39345;43.964;25.340;2024-01-06T01:40:16;17.30;;;11.75;;
43835;SDS011;39345;43.964;25.340;2024-01-06T01:42:44;20.17;;;11.50;;
43835;SDS011;39345;43.964;25.340;2024-01-06T01:45:12;17.90;;;11.43;;
43835;SDS011;39345;43.964;25.340;2024-01-06T01:47:39;19.05;;;12.00;;
43835;SDS011;39345;43.964;25.340;2024-01-06T01:50:07;16.92;;;11.40;;
43835;SDS011;39345;43.964;25.340;2024-01-06T01:52:35;20.85;;;12.30;;
43835;SDS011;39345;43.964;25.340;2024-01-06T01:55:04;17.80;;;12.07;;
43835;SDS011;39345;43.964;25.340;2024-01-06T01:57:32;19.55;;;12.73;;
43835;SDS011;39345;43.964;25.340;2024-01-06T02:00:00;18.55;;;12.10;;
43835;SDS011;39345;43.964;25.340;2024-01-06T02:02:37;20.90;;;12.73;;
43835;SDS011;39345;43.964;25.340;2024-01-06T02:05:04;20.38;;;12.75;;
43835;SDS011;39345;43.964;25.340;2024-01-06T02:07:32;18.17;;;14.07;;
43835;SDS011;39345;43.964;25.340;2024-01-06T02:09:59;20.42;;;13.40;;
43835;SDS011;39345;43.964;25.340;2024-01-06T02:12:27;18.17;;;13.05;;
43835;SDS011;39345;43.964;25.340;2024-01-06T02:14:54;21.50;;;13.27;;
43835;SDS011;39345;43.964;25.340;2024-01-06T02:17:22;20.27;;;13.13;;
43835;SDS011;39345;43.964;25.340;2024-01-06T02:19:50;19.40;;;13.32;;
43835;SDS011;39345;43.964;25.340;2024-01-06T02:22:17;23.05;;;13.63;;
43835;SDS011;39345;43.964;25.340;2024-01-06T02:24:45;21.08;;;14.25;;
43835;SDS011;39345;43.964;25.340;2024-01-06T02:27:13;22.60;;;14.20;;
43835;SDS011;39345;43.964;25.340;2024-01-06T02:29:41;25.85;;;14.70;;
43835;SDS011;39345;43.964;25.340;2024-01-06T02:32:09;22.98;;;15.85;;
43835;SDS011;39345;43.964;25.340;2024-01-06T02:34:36;22.70;;;16.00;;
43835;SDS011;39345;43.964;25.340;2024-01-06T02:37:05;26.13;;;15.60;;
43835;SDS011;39345;43.964;25.340;2024-01-06T02:39:32;22.58;;;14.90;;
43835;SDS011;39345;43.964;25.340;2024-01-06T02:42:00;26.20;;;16.73;;
43835;SDS011;39345;43.964;25.340;2024-01-06T02:44:28;26.23;;;16.65;;
43835;SDS011;39345;43.964;25.340;2024-01-06T02:46:55;24.30;;;15.80;;
43835;SDS011;39345;43.964;25.340;2024-01-06T02:49:23;27.13;;;17.45;;
43835;SDS011;39345;43.964;25.340;2024-01-06T02:51:50;25.40;;;17.02;;
43835;SDS011;39345;43.964;25.340;2024-01-06T02:54:18;28.65;;;18.33;;
43835;SDS011;39345;43.964;25.340;2024-01-06T02:56:45;26.27;;;18.00;;
43835;SDS011;39345;43.964;25.340;2024-01-06T02:59:13;28.70;;;19.02;;
43835;SDS011;39345;43.964;25.340;2024-01-06T03:01:40;28.83;;;18.88;;
43835;SDS011;39345;43.964;25.340;2024-01-06T03:04:08;30.67;;;19.33;;
43835;SDS011;39345;43.964;25.340;2024-01-06T03:06:36;28.77;;;18.10;;
43835;SDS011;39345;43.964;25.340;2024-01-06T03:09:03;30.80;;;18.70;;
43835;SDS011;39345;43.964;25.340;2024-01-06T03:11:31;28.50;;;18.45;;
43835;SDS011;39345;43.964;25.340;2024-01-06T03:13:59;26.83;;;18.92;;
43835;SDS011;39345;43.964;25.340;2024-01-06T03:16:26;30.17;;;18.92;;
43835;SDS011;39345;43.964;25.340;2024-01-06T03:18:53;31.10;;;19.10;;
43835;SDS011;39345;43.964;25.340;2024-01-06T03:21:22;29.30;;;19.38;;
43835;SDS011;39345;43.964;25.340;2024-01-06T03:23:50;29.20;;;18.65;;
43835;SDS011;39345;43.964;25.340;2024-01-06T03:26:17;27.38;;;19.45;;
43835;SDS011;39345;43.964;25.340;2024-01-06T03:28:45;31.98;;;19.65;;
43835;SDS011;39345;43.964;25.340;2024-01-06T03:31:12;30.23;;;19.50;;
43835;SDS011;39345;43.964;25.340;2024-01-06T03:33:40;33.53;;;19.90;;
43835;SDS011;39345;43.964;25.340;2024-01-06T03:36:08;35.90;;;20.23;;
43835;SDS011;39345;43.964;25.340;2024-01-06T03:38:35;33.97;;;21.50;;
43835;SDS011;39345;43.964;25.340;2024-01-06T03:41:03;33.53;;;21.08;;
43835;SDS011;39345;43.964;25.340;2024-01-06T03:43:30;29.83;;;19.60;;
43835;SDS011;39345;43.964;25.340;2024-01-06T03:45:58;31.90;;;19.88;;
43835;SDS011;39345;43.964;25.340;2024-01-06T03:48:26;34.45;;;19.67;;
43835;SDS011;39345;43.964;25.340;2024-01-06T03:50:54;33.30;;;20.10;;
43835;SDS011;39345;43.964;25.340;2024-01-06T03:53:22;31.92;;;19.45;;
43835;SDS011;39345;43.964;25.340;2024-01-06T03:55:52;33.85;;;20.05;;
43835;SDS011;39345;43.964;25.340;2024-01-06T03:58:20;31.80;;;20.15;;
43835;SDS011;39345;43.964;25.340;2024-01-06T04:00:47;31.67;;;20.20;;
43835;SDS011;39345;43.964;25.340;2024-01-06T04:03:15;31.83;;;21.13;;
43835;SDS011;39345;43.964;25.340;2024-01-06T04:05:43;31.08;;;20.05;;
43835;SDS011;39345;43.964;25.340;2024-01-06T04:08:10;30.63;;;19.60;;
43835;SDS011;39345;43.964;25.340;2024-01-06T04:10:38;32.35;;;20.67;;
43835;SDS011;39345;43.964;25.340;2024-01-06T04:13:07;33.92;;;20.25;;
43835;SDS011;39345;43.964;25.340;2024-01-06T04:15:35;31.35;;;20.35;;
43835;SDS011;39345;43.964;25.340;2024-01-06T04:18:03;32.60;;;20.13;;
43835;SDS011;39345;43.964;25.340;2024-01-06T04:20:31;36.35;;;20.70;;
43835;SDS011;39345;43.964;25.340;2024-01-06T04:22:59;33.63;;;20.52;;
43835;SDS011;39345;43.964;25.340;2024-01-06T04:25:26;31.63;;;19.80;;
43835;SDS011;39345;43.964;25.340;2024-01-06T04:27:54;29.80;;;20.70;;
43835;SDS011;39345;43.964;25.340;2024-01-06T04:30:21;29.98;;;19.58;;
43835;SDS011;39345;43.964;25.340;2024-01-06T04:32:51;30.88;;;20.20;;
43835;SDS011;39345;43.964;25.340;2024-01-06T04:35:19;30.80;;;19.20;;
43835;SDS011;39345;43.964;25.340;2024-01-06T04:37:48;30.23;;;19.60;;
43835;SDS011;39345;43.964;25.340;2024-01-06T04:40:15;33.00;;;19.63;;
43835;SDS011;39345;43.964;25.340;2024-01-06T04:42:43;30.48;;;19.52;;
43835;SDS011;39345;43.964;25.340;2024-01-06T04:45:11;30.45;;;19.73;;
43835;SDS011;39345;43.964;25.340;2024-01-06T04:47:38;31.20;;;19.80;;
43835;SDS011;39345;43.964;25.340;2024-01-06T04:50:06;30.98;;;20.00;;
43835;SDS011;39345;43.964;25.340;2024-01-06T04:52:34;33.38;;;19.70;;
43835;SDS011;39345;43.964;25.340;2024-01-06T04:55:01;32.25;;;20.88;;
43835;SDS011;39345;43.964;25.340;2024-01-06T04:57:29;28.83;;;18.90;;
43835;SDS011;39345;43.964;25.340;2024-01-06T04:59:56;33.28;;;19.13;;
43835;SDS011;39345;43.964;25.340;2024-01-06T05:02:24;31.05;;;19.83;;
43835;SDS011;39345;43.964;25.340;2024-01-06T05:04:52;29.27;;;19.15;;
43835;SDS011;39345;43.964;25.340;2024-01-06T05:07:19;34.10;;;20.38;;
43835;SDS011;39345;43.964;25.340;2024-01-06T05:09:47;36.40;;;19.98;;
43835;SDS011;39345;43.964;25.340;2024-01-06T05:12:14;29.70;;;18.77;;
43835;SDS011;39345;43.964;25.340;2024-01-06T05:14:42;28.40;;;18.13;;
43835;SDS011;39345;43.964;25.340;2024-01-06T05:17:09;29.27;;;18.65;;
43835;SDS011;39345;43.964;25.340;2024-01-06T05:19:37;31.85;;;19.63;;
43835;SDS011;39345;43.964;25.340;2024-01-06T05:22:05;32.35;;;18.92;;
43835;SDS011;39345;43.964;25.340;2024-01-06T05:24:32;31.45;;;18.50;;
43835;SDS011;39345;43.964;25.340;2024-01-06T05:27:00;30.40;;;17.63;;
43835;SDS011;39345;43.964;25.340;2024-01-06T05:29:27;27.92;;;18.42;;
43835;SDS011;39345;43.964;25.340;2024-01-06T05:31:55;28.73;;;17.92;;
43835;SDS011;39345;43.964;25.340;2024-01-06T05:34:22;30.65;;;18.23;;
43835;SDS011;39345;43.964;25.340;2024-01-06T05:36:50;31.95;;;19.00;;
43835;SDS011;39345;43.964;25.340;2024-01-06T05:39:18;28.35;;;18.13;;
43835;SDS011;39345;43.964;25.340;2024-01-06T05:41:45;32.00;;;18.75;;
43835;SDS011;39345;43.964;25.340;2024-01-06T05:44:13;29.08;;;18.25;;
43835;SDS011;39345;43.964;25.340;2024-01-06T05:46:41;30.70;;;18.35;;
43835;SDS011;39345;43.964;25.340;2024-01-06T05:49:08;26.95;;;18.50;;
43835;SDS011;39345;43.964;25.340;2024-01-06T05:51:37;28.38;;;19.33;;
43835;SDS011;39345;43.964;25.340;2024-01-06T05:54:04;34.78;;;19.00;;
43835;SDS011;39345;43.964;25.340;2024-01-06T05:56:32;27.65;;;17.88;;
43835;SDS011;39345;43.964;25.340;2024-01-06T05:58:59;30.17;;;18.70;;
43835;SDS011;39345;43.964;25.340;2024-01-06T06:01:29;31.40;;;18.58;;
43835;SDS011;39345;43.964;25.340;2024-01-06T06:03:56;31.75;;;18.58;;
43835;SDS011;39345;43.964;25.340;2024-01-06T06:06:24;28.83;;;18.02;;
43835;SDS011;39345;43.964;25.340;2024-01-06T06:08:52;31.20;;;17.92;;
43835;SDS011;39345;43.964;25.340;2024-01-06T06:11:19;32.97;;;19.00;;
43835;SDS011;39345;43.964;25.340;2024-01-06T06:13:47;35.15;;;19.42;;
43835;SDS011;39345;43.964;25.340;2024-01-06T06:16:15;31.17;;;19.80;;
43835;SDS011;39345;43.964;25.340;2024-01-06T06:18:42;32.70;;;19.58;;
43835;SDS011;39345;43.964;25.340;2024-01-06T06:21:10;31.08;;;19.08;;
43835;SDS011;39345;43.964;25.340;2024-01-06T06:23:38;28.98;;;18.17;;
43835;SDS011;39345;43.964;25.340;2024-01-06T06:26:06;31.45;;;19.05;;
43835;SDS011;39345;43.964;25.340;2024-01-06T06:28:34;30.98;;;18.52;;
43835;SDS011;39345;43.964;25.340;2024-01-06T06:31:02;30.20;;;18.23;;
43835;SDS011;39345;43.964;25.340;2024-01-06T06:33:31;30.77;;;19.38;;
43835;SDS011;39345;43.964;25.340;2024-01-06T06:36:00;30.10;;;19.48;;
43835;SDS011;39345;43.964;25.340;2024-01-06T06:38:28;31.50;;;19.80;;
43835;SDS011;39345;43.964;25.340;2024-01-06T06:40:56;35.95;;;20.75;;
43835;SDS011;39345;43.964;25.340;2024-01-06T06:43:23;35.80;;;20.08;;
43835;SDS011;39345;43.964;25.340;2024-01-06T06:45:51;37.00;;;21.08;;
43835;SDS011;39345;43.964;25.340;2024-01-06T06:48:19;32.47;;;20.60;;
43835;SDS011;39345;43.964;25.340;2024-01-06T06:50:46;35.25;;;20.25;;
43835;SDS011;39345;43.964;25.340;2024-01-06T06:53:14;29.55;;;19.63;;
43835;SDS011;39345;43.964;25.340;2024-01-06T06:55:41;32.38;;;21.85;;
43835;SDS011;39345;43.964;25.340;2024-01-06T06:58:09;33.60;;;21.63;;
43835;SDS011;39345;43.964;25.340;2024-01-06T07:00:37;33.17;;;21.63;;
43835;SDS011;39345;43.964;25.340;2024-01-06T07:03:04;37.97;;;22.10;;
43835;SDS011;39345;43.964;25.340;2024-01-06T07:05:34;35.05;;;22.55;;
43835;SDS011;39345;43.964;25.340;2024-01-06T07:08:05;47.33;;;27.02;;
43835;SDS011;39345;43.964;25.340;2024-01-06T07:10:32;52.55;;;29.75;;
43835;SDS011;39345;43.964;25.340;2024-01-06T07:13:00;47.05;;;25.05;;
43835;SDS011;39345;43.964;25.340;2024-01-06T07:15:28;41.67;;;24.52;;
43835;SDS011;39345;43.964;25.340;2024-01-06T07:17:55;50.83;;;28.27;;
43835;SDS011;39345;43.964;25.340;2024-01-06T07:20:23;57.80;;;31.17;;
43835;SDS011;39345;43.964;25.340;2024-01-06T07:22:53;54.28;;;30.60;;
43835;SDS011;39345;43.964;25.340;2024-01-06T07:25:21;51.53;;;30.10;;
43835;SDS011;39345;43.964;25.340;2024-01-06T07:27:50;55.92;;;31.20;;
43835;SDS011;39345;43.964;25.340;2024-01-06T07:30:21;55.38;;;30.33;;
43835;SDS011;39345;43.964;25.340;2024-01-06T07:32:48;55.15;;;31.60;;
43835;SDS011;39345;43.964;25.340;2024-01-06T07:35:18;51.83;;;28.77;;
43835;SDS011;39345;43.964;25.340;2024-01-06T07:37:46;52.65;;;29.50;;
43835;SDS011;39345;43.964;25.340;2024-01-06T07:40:13;51.60;;;35.15;;
43835;SDS011;39345;43.964;25.340;2024-01-06T07:42:43;49.03;;;29.52;;
43835;SDS011;39345;43.964;25.340;2024-01-06T07:45:11;65.25;;;38.22;;
43835;SDS011;39345;43.964;25.340;2024-01-06T07:47:40;53.50;;;32.08;;
43835;SDS011;39345;43.964;25.340;2024-01-06T07:50:08;47.53;;;29.85;;
43835;SDS011;39345;43.964;25.340;2024-01-06T07:52:36;51.40;;;31.05;;
43835;SDS011;39345;43.964;25.340;2024-01-06T07:55:03;53.70;;;29.17;;
43835;SDS011;39345;43.964;25.340;2024-01-06T07:57:31;36.80;;;23.83;;
43835;SDS011;39345;43.964;25.340;2024-01-06T07:59:59;39.22;;;23.15;;
43835;SDS011;39345;43.964;25.340;2024-01-06T08:02:37;33.28;;;21.85;;
43835;SDS011;39345;43.964;25.340;2024-01-06T08:05:05;34.97;;;22.00;;
43835;SDS011;39345;43.964;25.340;2024-01-06T08:07:33;44.22;;;26.67;;
43835;SDS011;39345;43.964;25.340;2024-01-06T08:10:01;37.28;;;22.13;;
43835;SDS011;39345;43.964;25.340;2024-01-06T08:12:31;38.45;;;23.52;;
43835;SDS011;39345;43.964;25.340;2024-01-06T08:14:59;37.33;;;22.35;;
43835;SDS011;39345;43.964;25.340;2024-01-06T08:17:26;35.53;;;22.05;;
43835;SDS011;39345;43.964;25.340;2024-01-06T08:19:54;35.40;;;22.00;;
43835;SDS011;39345;43.964;25.340;2024-01-06T08:22:22;33.63;;;20.10;;
43835;SDS011;39345;43.964;25.340;2024-01-06T08:24:49;30.70;;;18.00;;
43835;SDS011;39345;43.964;25.340;2024-01-06T08:27:17;27.17;;;17.30;;
43835;SDS011;39345;43.964;25.340;2024-01-06T08:29:44;26.80;;;17.88;;
43835;SDS011;39345;43.964;25.340;2024-01-06T08:32:12;28.90;;;17.17;;
43835;SDS011;39345;43.964;25.340;2024-01-06T08:34:41;25.92;;;17.40;;
43835;SDS011;39345;43.964;25.340;2024-01-06T08:37:09;25.85;;;17.58;;
43835;SDS011;39345;43.964;25.340;2024-01-06T08:39:36;26.58;;;18.15;;
43835;SDS011;39345;43.964;25.340;2024-01-06T08:42:04;25.85;;;17.10;;
43835;SDS011;39345;43.964;25.340;2024-01-06T08:44:32;26.40;;;17.15;;
43835;SDS011;39345;43.964;25.340;2024-01-06T08:47:00;30.60;;;17.98;;
43835;SDS011;39345;43.964;25.340;2024-01-06T08:49:27;29.67;;;18.33;;
43835;SDS011;39345;43.964;25.340;2024-01-06T08:51:55;26.58;;;18.13;;
43835;SDS011;39345;43.964;25.340;2024-01-06T08:54:23;40.42;;;22.13;;
43835;SDS011;39345;43.964;25.340;2024-01-06T08:56:51;28.02;;;18.40;;
43835;SDS011;39345;43.964;25.340;2024-01-06T08:59:18;25.55;;;15.70;;
43835;SDS011;39345;43.964;25.340;2024-01-06T09:01:46;24.70;;;17.25;;
43835;SDS011;39345;43.964;25.340;2024-01-06T09:04:16;23.85;;;16.15;;
43835;SDS011;39345;43.964;25.340;2024-01-06T09:06:44;25.05;;;15.35;;
43835;SDS011;39345;43.964;25.340;2024-01-06T09:09:13;21.92;;;14.63;;
43835;SDS011;39345;43.964;25.340;2024-01-06T09:11:41;21.40;;;14.02;;
43835;SDS011;39345;43.964;25.340;2024-01-06T09:14:10;23.02;;;15.18;;
43835;SDS011;39345;43.964;25.340;2024-01-06T09:16:38;30.45;;;15.05;;
43835;SDS011;39345;43.964;25.340;2024-01-06T09:19:05;28.13;;;16.50;;
43835;SDS011;39345;43.964;25.340;2024-01-06T09:21:34;27.85;;;14.40;;
43835;SDS011;39345;43.964;25.340;2024-01-06T09:24:02;25.40;;;14.45;;
43835;SDS011;39345;43.964;25.340;2024-01-06T09:26:33;21.83;;;14.13;;
43835;SDS011;39345;43.964;25.340;2024-01-06T09:29:01;22.35;;;13.02;;
43835;SDS011;39345;43.964;25.340;2024-01-06T09:31:29;18.33;;;12.38;;
43835;SDS011;39345;43.964;25.340;2024-01-06T09:34:00;18.35;;;13.00;;
43835;SDS011;39345;43.964;25.340;2024-01-06T09:36:32;21.73;;;14.45;;
43835;SDS011;39345;43.964;25.340;2024-01-06T09:38:59;22.27;;;14.32;;
43835;SDS011;39345;43.964;25.340;2024-01-06T09:41:27;21.65;;;13.90;;
43835;SDS011;39345;43.964;25.340;2024-01-06T09:43:54;22.60;;;13.90;;
43835;SDS011;39345;43.964;25.340;2024-01-06T09:46:26;20.60;;;14.00;;
43835;SDS011;39345;43.964;25.340;2024-01-06T09:48:56;22.65;;;14.10;;
43835;SDS011;39345;43.964;25.340;2024-01-06T09:51:25;22.63;;;14.77;;
43835;SDS011;39345;43.964;25.340;2024-01-06T09:54:00;25.40;;;16.58;;
43835;SDS011;39345;43.964;25.340;2024-01-06T09:56:28;22.33;;;15.10;;
43835;SDS011;39345;43.964;25.340;2024-01-06T09:58:56;25.08;;;16.13;;
43835;SDS011;39345;43.964;25.340;2024-01-06T10:01:24;32.88;;;19.00;;
43835;SDS011;39345;43.964;25.340;2024-01-06T10:03:52;27.73;;;17.50;;
43835;SDS011;39345;43.964;25.340;2024-01-06T10:06:19;22.75;;;15.93;;
43835;SDS011;39345;43.964;25.340;2024-01-06T10:08:48;22.95;;;15.15;;
43835;SDS011;39345;43.964;25.340;2024-01-06T10:11:16;24.88;;;15.52;;
43835;SDS011;39345;43.964;25.340;2024-01-06T10:13:44;22.77;;;14.80;;
43835;SDS011;39345;43.964;25.340;2024-01-06T10:16:11;24.08;;;14.32;;
43835;SDS011;39345;43.964;25.340;2024-01-06T10:18:39;25.10;;;15.77;;
43835;SDS011;39345;43.964;25.340;2024-01-06T10:21:07;20.40;;;13.38;;
43835;SDS011;39345;43.964;25.340;2024-01-06T10:23:36;18.13;;;12.15;;
43835;SDS011;39345;43.964;25.340;2024-01-06T10:26:03;16.63;;;12.00;;
43835;SDS011;39345;43.964;25.340;2024-01-06T10:28:31;19.58;;;12.90;;
43835;SDS011;39345;43.964;25.340;2024-01-06T10:30:59;38.10;;;22.73;;
43835;SDS011;39345;43.964;25.340;2024-01-06T10:33:28;24.67;;;14.32;;
43835;SDS011;39345;43.964;25.340;2024-01-06T10:35:55;67.32;;;42.00;;
43835;SDS011;39345;43.964;25.340;2024-01-06T10:38:23;29.33;;;16.77;;
43835;SDS011;39345;43.964;25.340;2024-01-06T10:40:59;22.67;;;14.93;;
43835;SDS011;39345;43.964;25.340;2024-01-06T10:43:29;18.15;;;12.43;;
43835;SDS011;39345;43.964;25.340;2024-01-06T10:46:01;18.58;;;13.20;;
43835;SDS011;39345;43.964;25.340;2024-01-06T10:48:34;24.50;;;12.60;;
43835;SDS011;39345;43.964;25.340;2024-01-06T10:51:02;24.02;;;14.73;;
43835;SDS011;39345;43.964;25.340;2024-01-06T10:53:34;21.45;;;14.18;;
43835;SDS011;39345;43.964;25.340;2024-01-06T10:56:06;25.80;;;14.55;;
43835;SDS011;39345;43.964;25.340;2024-01-06T10:58:38;26.52;;;14.65;;
43835;SDS011;39345;43.964;25.340;2024-01-06T11:01:10;23.77;;;16.17;;
43835;SDS011;39345;43.964;25.340;2024-01-06T11:03:42;24.65;;;16.05;;
43835;SDS011;39345;43.964;25.340;2024-01-06T11:06:11;24.83;;;16.50;;
43835;SDS011;39345;43.964;25.340;2024-01-06T11:08:51;23.88;;;15.98;;
43835;SDS011;39345;43.964;25.340;2024-01-06T11:11:20;22.80;;;15.63;;
43835;SDS011;39345;43.964;25.340;2024-01-06T11:13:50;25.85;;;16.38;;
43835;SDS011;39345;43.964;25.340;2024-01-06T11:16:33;25.70;;;16.60;;
43835;SDS011;39345;43.964;25.340;2024-01-06T11:19:01;24.83;;;16.75;;
43835;SDS011;39345;43.964;25.340;2024-01-06T11:21:34;25.25;;;17.05;;
43835;SDS011;39345;43.964;25.340;2024-01-06T11:24:15;25.77;;;16.52;;
43835;SDS011;39345;43.964;25.340;2024-01-06T11:26:43;23.35;;;15.93;;
43835;SDS011;39345;43.964;25.340;2024-01-06T11:29:11;23.00;;;15.20;;
43835;SDS011;39345;43.964;25.340;2024-01-06T11:31:39;29.15;;;15.45;;
43835;SDS011;39345;43.964;25.340;2024-01-06T11:34:17;21.27;;;13.18;;
43835;SDS011;39345;43.964;25.340;2024-01-06T11:36:47;21.17;;;14.48;;
43835;SDS011;39345;43.964;25.340;2024-01-06T11:42:03;25.45;;;14.80;;
43835;SDS011;39345;43.964;25.340;2024-01-06T11:44:36;25.70;;;15.10;;
43835;SDS011;39345;43.964;25.340;2024-01-06T11:47:04;21.70;;;14.57;;
43835;SDS011;39345;43.964;25.340;2024-01-06T11:49:32;20.85;;;13.85;;
43835;SDS011;39345;43.964;25.340;2024-01-06T11:52:00;22.70;;;13.45;;
43835;SDS011;39345;43.964;25.340;2024-01-06T11:54:28;23.58;;;13.40;;
43835;SDS011;39345;43.964;25.340;2024-01-06T11:56:55;26.25;;;13.85;;
43835;SDS011;39345;43.964;25.340;2024-01-06T11:59:24;23.70;;;13.95;;
43835;SDS011;39345;43.964;25.340;2024-01-06T12:01:51;19.17;;;12.98;;
43835;SDS011;39345;43.964;25.340;2024-01-06T12:04:19;23.95;;;13.75;;
43835;SDS011;39345;43.964;25.340;2024-01-06T12:06:48;22.58;;;13.95;;
43835;SDS011;39345;43.964;25.340;2024-01-06T12:09:16;19.23;;;11.35;;
43835;SDS011;39345;43.964;25.340;2024-01-06T12:11:46;15.23;;;10.55;;
43835;SDS011;39345;43.964;25.340;2024-01-06T12:14:13;19.40;;;11.02;;
43835;SDS011;39345;43.964;25.340;2024-01-06T12:16:42;25.92;;;13.80;;
43835;SDS011;39345;43.964;25.340;2024-01-06T12:19:10;16.35;;;10.52;;
43835;SDS011;39345;43.964;25.340;2024-01-06T12:21:38;15.25;;;9.30;;
43835;SDS011;39345;43.964;25.340;2024-01-06T12:24:12;17.05;;;10.25;;
43835;SDS011;39345;43.964;25.340;2024-01-06T12:26:44;15.80;;;9.80;;
43835;SDS011;39345;43.964;25.340;2024-01-06T12:29:16;16.02;;;11.00;;
43835;SDS011;39345;43.964;25.340;2024-01-06T12:31:44;19.65;;;11.38;;
43835;SDS011;39345;43.964;25.340;2024-01-06T12:34:12;18.48;;;10.82;;
43835;SDS011;39345;43.964;25.340;2024-01-06T12:36:40;16.23;;;10.90;;
43835;SDS011;39345;43.964;25.340;2024-01-06T12:39:11;15.88;;;10.75;;
43835;SDS011;39345;43.964;25.340;2024-01-06T12:41:43;21.08;;;10.85;;
43835;SDS011;39345;43.964;25.340;2024-01-06T12:44:10;15.27;;;10.15;;
43835;SDS011;39345;43.964;25.340;2024-01-06T12:46:39;18.20;;;11.77;;
43835;SDS011;39345;43.964;25.340;2024-01-06T12:49:06;18.27;;;11.48;;
43835;SDS011;39345;43.964;25.340;2024-01-06T12:51:34;17.45;;;10.82;;
43835;SDS011;39345;43.964;25.340;2024-01-06T12:54:02;17.77;;;11.38;;
43835;SDS011;39345;43.964;25.340;2024-01-06T12:56:30;16.10;;;10.57;;
43835;SDS011;39345;43.964;25.340;2024-01-06T12:58:58;14.70;;;9.30;;
43835;SDS011;39345;43.964;25.340;2024-01-06T13:01:26;16.85;;;9.93;;
43835;SDS011;39345;43.964;25.340;2024-01-06T13:03:54;13.75;;;9.32;;
43835;SDS011;39345;43.964;25.340;2024-01-06T13:06:21;14.55;;;10.13;;
43835;SDS011;39345;43.964;25.340;2024-01-06T13:08:49;17.58;;;10.82;;
43835;SDS011;39345;43.964;25.340;2024-01-06T13:11:17;15.70;;;10.63;;
43835;SDS011;39345;43.964;25.340;2024-01-06T13:13:45;14.90;;;10.20;;
43835;SDS011;39345;43.964;25.340;2024-01-06T13:16:12;15.13;;;10.23;;
43835;SDS011;39345;43.964;25.340;2024-01-06T13:18:40;17.33;;;10.50;;
43835;SDS011;39345;43.964;25.340;2024-01-06T13:21:08;23.27;;;11.93;;
43835;SDS011;39345;43.964;25.340;2024-01-06T13:23:35;17.13;;;9.85;;
43835;SDS011;39345;43.964;25.340;2024-01-06T13:26:03;18.30;;;9.90;;
43835;SDS011;39345;43.964;25.340;2024-01-06T13:28:30;15.93;;;11.32;;
43835;SDS011;39345;43.964;25.340;2024-01-06T13:30:58;18.42;;;11.52;;
43835;SDS011;39345;43.964;25.340;2024-01-06T13:33:25;17.50;;;10.93;;
43835;SDS011;39345;43.964;25.340;2024-01-06T13:35:53;16.23;;;10.52;;
43835;SDS011;39345;43.964;25.340;2024-01-06T13:38:21;17.40;;;11.02;;
43835;SDS011;39345;43.964;25.340;2024-01-06T13:40:49;19.50;;;12.07;;
43835;SDS011;39345;43.964;25.340;2024-01-06T13:43:18;19.90;;;11.88;;
43835;SDS011;39345;43.964;25.340;2024-01-06T13:45:46;23.02;;;13.95;;
43835;SDS011;39345;43.964;25.340;2024-01-06T13:48:16;22.13;;;13.88;;
43835;SDS011;39345;43.964;25.340;2024-01-06T13:50:45;20.33;;;13.43;;
43835;SDS011;39345;43.964;25.340;2024-01-06T13:53:13;16.80;;;12.10;;
43835;SDS011;39345;43.964;25.340;2024-01-06T13:55:41;15.15;;;11.30;;
43835;SDS011;39345;43.964;25.340;2024-01-06T13:58:09;16.27;;;11.90;;
43835;SDS011;39345;43.964;25.340;2024-01-06T14:00:36;16.30;;;10.70;;
43835;SDS011;39345;43.964;25.340;2024-01-06T14:03:05;17.30;;;11.35;;
43835;SDS011;39345;43.964;25.340;2024-01-06T14:05:33;17.88;;;11.02;;
43835;SDS011;39345;43.964;25.340;2024-01-06T14:08:01;16.75;;;10.05;;
43835;SDS011;39345;43.964;25.340;2024-01-06T14:10:29;18.33;;;9.82;;
43835;SDS011;39345;43.964;25.340;2024-01-06T14:12:58;18.02;;;13.43;;
43835;SDS011;39345;43.964;25.340;2024-01-06T14:15:25;18.27;;;11.15;;
43835;SDS011;39345;43.964;25.340;2024-01-06T14:17:53;19.10;;;11.23;;
43835;SDS011;39345;43.964;25.340;2024-01-06T14:20:23;27.90;;;17.95;;